Text Box: All records at near 07:00 local time
Kleivo 1 weather for Dec 2009
Month no. 37
Obs.
Da.
Temp. Dew Point Precip. Wind
Speed
Wind gusts Cloud cover Press. Humidity Wind dir. Sunny OPT
01.12.2009 -1,1 -2,6 0,0 1,9 1,9 8 991,4 90,0 337,5 1 72,5 %
02.12.2009 3,9 -3,2 0,5 10,1 10,1 2 991,4 60,0 157,5   57,5 %
03.12.2009 4,3 -5,8 9,9 31,5 31,5 10 987,0 48,0 135,0 1 55,0 %
04.12.2009 6,3 -1,4 5,6 18,5 19,6 1 986,7 58,0 90,0 1 47,5 %
05.12.2009 6,1 1,6 5,2 3,7 3,7 1 987,4 73,0 157,5   57,5 %
06.12.2009 8,1 0,6 1,0 7,9 7,9 1 979,6 59,0 135,0   60,0 %
07.12.2009 6,9 3,3 1,5 7,4 7,4 1 978,9 78,0 157,5   57,5 %
08.12.2009 7,6 1,4 1,5 16,3 16,3 10 988,7 65,0 112,5 1 77,5 %
09.12.2009 7,8 1,2 0,0 18,5 18,5 1 995,1 63,0 135,0   52,5 %
10.12.2009 5,3 2,3 0,5 3,7 3,7 2 999,5 81,0 225,0   62,5 %
11.12.2009 2,5 1,0 0,0 0,0 0,0 3 1012,8 90,0 0,0   65,0 %
12.12.2009 -0,5 -1,9 0,5 1,9 0,0 10 1019,2 90,0 22,5 1 77,5 %
13.12.2009 1,4 -0,4 0,0 0,0 0,0 10 1013,4 88,0 135,0 1 80,0 %
14.12.2009 2,5 0,9 1,0 18,5 18,5 3 1002,6 89,0 112,5   52,5 %
15.12.2009 2,1 0,6 3,1 0,0 0,0 1 999,5 90,0 135,0   55,0 %
16.12.2009 0,6 -1,2 0,5 6,1 6,1 1 993,5 88,0 135,0   55,0 %
17.12.2009 -2,4 -13,3 0,5 33,1 33,1 10 1007,0 43,0 135,0 1 55,0 %
18.12.2009 -8,4 -12,6 9,2 0,0 0,0 10 1008,4 72,0 45,0 1 67,5 %
19.12.2009 -2,2 -3,8 6,2 25,9 25,9 1 987,4 89,0 135,0   32,5 %
20.12.2009 -3,1 -4,5 29,3 3,7 3,7 1 976,5 90,0 135,0   27,5 %
21.12.2009 -4,6 -10,6 22,9 19,5 19,5 3 978,6 63,0 45,0 1 27,5 %
22.12.2009 -0,6 -6,6 2,6 20,4 20,4 10 971,1 64,0 157,5 1 65,0 %
23.12.2009 -0,6 -7,2 15,5 22,2 22,2 10 968,7 61,0 90,0 1 50,0 %
24.12.2009 -0,7 -2,6 2,0 5,6 5,8 10 973,5 87,0 112,5 1 75,0 %
25.12.2009 -0,1 -3,3 5,1 3,7 3,7 2 979,2 79,0 45,0   52,5 %
26.12.2009 -0,4 -2,3 14,8 13,0 13,0 3 975,5 87,0 112,5 1 42,5 %
27.12.2009 1,1 -0,3 1,0 7,6 7,6 3 971,4 90,0 135,0 1 57,5 %
28.12.2009 -1,1 -2,6 4,6 0,0 0,0 1 978,6 90,0 337,5   52,5 %
29.12.2009 -2,1 -3,5 1,0 3,7 3,7 3 984,3 90,0 112,5 1 57,5 %
30.12.2009 -7,3 -8,9 0,5 6,1 6,1 10 992,1 88,0 112,5 1 72,5 %
31.12.2009 -7,7 -9,3 0,0 2,6 2,6 8 991,8 88,0 112,5 1 70,0 %
Avrg/Sum 0,8 -3,1 146,0 10,1 10,1 4,8 989,4 77,1 129,2 17 57,7 %